Time;durP1;ratioP1;P1;durP2;ratioP2;P2;SDS_P1;SDS_P2;PMS_P1;PMS_P2;Temp;Humidity;BMP_temperature;BMP_pressure;BME280_temperature;BME280_humidity;BME280_pressure;Samples;Min_cycle;Max_cycle;Signal;HPM_P1;HPM_P2
2023/08/30 00:00:55;;;;;;;4.60;3.75;;;;;;;;;;5036166;28;20075;-59
2023/08/30 00:03:22;;;;;;;7.00;3.95;;;;;;;;;;5050630;28;20181;-59
2023/08/30 00:05:48;;;;;;;4.97;3.38;;;;;;;;;;5049908;28;20543;-59
2023/08/30 00:08:18;;;;;;;7.00;4.03;;;;;;;;;;5051919;28;20036;-60
2023/08/30 00:10:44;;;;;;;4.40;3.17;;;;;;;;;;5050034;28;20067;-59
2023/08/30 00:13:11;;;;;;;6.13;3.83;;;;;;;;;;5053693;28;20283;-60
2023/08/30 00:15:37;;;;;;;5.10;3.50;;;;;;;;;;5055425;28;20066;-60
2023/08/30 00:18:03;;;;;;;5.30;3.92;;;;;;;;;;5046883;28;20045;-60
2023/08/30 00:20:30;;;;;;;5.03;3.85;;;;;;;;;;5042594;28;20654;-60
2023/08/30 00:22:56;;;;;;;5.28;3.58;;;;;;;;;;5039376;28;20205;-59
2023/08/30 00:25:22;;;;;;;6.90;4.10;;;;;;;;;;5043542;28;20115;-59
2023/08/30 00:27:48;;;;;;;5.43;3.85;;;;;;;;;;5043888;28;20305;-60
2023/08/30 00:30:14;;;;;;;6.07;3.92;;;;;;;;;;5039603;28;20056;-60
2023/08/30 00:32:40;;;;;;;7.18;3.88;;;;;;;;;;5044974;28;20126;-60
2023/08/30 00:35:07;;;;;;;5.35;3.47;;;;;;;;;;5038463;28;20131;-60
2023/08/30 00:37:33;;;;;;;5.72;3.53;;;;;;;;;;5077445;28;20310;-59
2023/08/30 00:39:59;;;;;;;7.90;4.50;;;;;;;;;;5052038;28;20628;-60
2023/08/30 00:42:27;;;;;;;4.78;3.53;;;;;;;;;;5048967;28;20054;-60
2023/08/30 00:44:53;;;;;;;5.57;4.13;;;;;;;;;;5050110;28;20234;-60
2023/08/30 00:47:19;;;;;;;4.78;4.07;;;;;;;;;;5062982;28;20498;-60
2023/08/30 00:49:45;;;;;;;6.47;3.70;;;;;;;;;;5049335;28;20116;-60
2023/08/30 00:52:11;;;;;;;4.97;4.13;;;;;;;;;;5064188;28;20129;-60
2023/08/30 00:54:38;;;;;;;5.93;4.07;;;;;;;;;;5048977;28;20157;-60
2023/08/30 00:57:05;;;;;;;5.72;3.70;;;;;;;;;;5050080;28;20071;-60
2023/08/30 00:59:32;;;;;;;5.10;3.40;;;;;;;;;;5055708;28;20427;-60
2023/08/30 01:02:00;;;;;;;4.60;3.60;;;;;;;;;;5055062;28;20186;-61
2023/08/30 01:04:28;;;;;;;7.15;3.65;;;;;;;;;;5053995;28;20130;-60
2023/08/30 01:06:54;;;;;;;5.25;4.22;;;;;;;;;;5053781;28;20585;-60
2023/08/30 01:09:24;;;;;;;4.47;3.63;;;;;;;;;;5054940;28;20385;-60
2023/08/30 01:12:10;;;;;;;5.30;4.38;;;;;;;;;;5054901;28;20242;-61
2023/08/30 01:14:59;;;;;;;4.85;3.20;;;;;;;;;;5055170;28;20041;-60
2023/08/30 01:17:26;;;;;;;4.90;3.90;;;;;;;;;;5056707;28;20044;-60
2023/08/30 01:20:18;;;;;;;4.75;3.67;;;;;;;;;;5074170;28;20224;-60
2023/08/30 01:23:05;;;;;;;4.13;3.53;;;;;;;;;;5055600;28;20040;-59
2023/08/30 01:25:49;;;;;;;6.30;3.85;;;;;;;;;;5054870;28;20084;-60
2023/08/30 01:28:17;;;;;;;4.53;3.67;;;;;;;;;;5059156;28;20060;-60
2023/08/30 01:30:44;;;;;;;4.85;3.78;;;;;;;;;;5066752;28;20218;-60
2023/08/30 01:33:10;;;;;;;5.70;3.38;;;;;;;;;;5065601;28;20625;-59
2023/08/30 01:35:37;;;;;;;4.93;3.22;;;;;;;;;;5079703;28;20047;-59
2023/08/30 01:38:06;;;;;;;5.30;4.00;;;;;;;;;;5071719;28;20523;-59
2023/08/30 01:40:35;;;;;;;5.15;3.67;;;;;;;;;;5051585;28;20619;-60
2023/08/30 01:43:04;;;;;;;5.10;3.20;;;;;;;;;;5049884;28;20418;-59
2023/08/30 01:45:31;;;;;;;4.57;3.67;;;;;;;;;;5059946;28;20318;-60
2023/08/30 01:47:57;;;;;;;5.43;3.88;;;;;;;;;;5055475;28;20197;-60
2023/08/30 01:50:24;;;;;;;5.50;4.00;;;;;;;;;;5063240;28;20036;-58
2023/08/30 01:52:50;;;;;;;6.40;4.13;;;;;;;;;;5026466;28;20458;-60
2023/08/30 01:55:18;;;;;;;4.93;3.45;;;;;;;;;;5046661;28;20066;-59
2023/08/30 01:57:44;;;;;;;4.72;3.20;;;;;;;;;;5059437;28;20048;-60
2023/08/30 02:00:11;;;;;;;5.20;3.85;;;;;;;;;;5064549;28;20051;-59
2023/08/30 02:02:37;;;;;;;10.25;4.15;;;;;;;;;;5058564;28;20045;-59
2023/08/30 02:05:03;;;;;;;4.75;3.65;;;;;;;;;;5050750;28;20086;-59
2023/08/30 02:07:38;;;;;;;6.85;3.95;;;;;;;;;;5058757;28;20675;-60
2023/08/30 02:10:09;;;;;;;7.40;4.25;;;;;;;;;;5060651;28;20266;-60
2023/08/30 02:12:50;;;;;;;4.93;3.47;;;;;;;;;;5063837;28;20275;-59
2023/08/30 02:15:16;;;;;;;5.88;3.65;;;;;;;;;;5056841;28;20503;-60
2023/08/30 02:17:43;;;;;;;5.32;3.80;;;;;;;;;;5059032;28;20374;-60
2023/08/30 02:20:09;;;;;;;14.25;3.90;;;;;;;;;;5061521;28;20060;-60
2023/08/30 02:22:36;;;;;;;5.63;3.72;;;;;;;;;;5070860;28;20032;-60
2023/08/30 02:25:04;;;;;;;6.03;3.88;;;;;;;;;;5063476;28;20586;-60
2023/08/30 02:27:31;;;;;;;8.07;4.70;;;;;;;;;;5063659;28;20666;-59
2023/08/30 02:29:57;;;;;;;5.28;3.83;;;;;;;;;;5058412;28;20044;-60
2023/08/30 02:32:24;;;;;;;5.47;3.80;;;;;;;;;;5049580;28;20254;-59
2023/08/30 02:34:51;;;;;;;4.65;3.72;;;;;;;;;;5050187;28;20191;-60
2023/08/30 02:37:17;;;;;;;4.70;3.20;;;;;;;;;;5059060;28;20655;-60
2023/08/30 02:39:43;;;;;;;4.68;3.40;;;;;;;;;;5049184;28;20292;-59
2023/08/30 02:42:10;;;;;;;4.57;3.10;;;;;;;;;;5050565;28;20734;-55
2023/08/30 02:44:36;;;;;;;4.03;3.38;;;;;;;;;;5055141;28;20096;-60
2023/08/30 02:47:02;;;;;;;4.50;3.60;;;;;;;;;;5061236;28;20499;-60
2023/08/30 02:49:28;;;;;;;5.43;3.67;;;;;;;;;;5044510;28;20531;-59
2023/08/30 02:51:54;;;;;;;5.63;3.80;;;;;;;;;;5052125;28;20310;-59
2023/08/30 02:54:22;;;;;;;5.25;3.85;;;;;;;;;;5039773;28;20361;-59
2023/08/30 02:56:48;;;;;;;5.28;3.70;;;;;;;;;;5053607;28;20263;-59
2023/08/30 02:59:14;;;;;;;4.53;3.50;;;;;;;;;;5049774;28;20328;-59
2023/08/30 03:01:40;;;;;;;4.63;3.90;;;;;;;;;;5056579;28;20058;-59
2023/08/30 03:04:07;;;;;;;5.45;3.83;;;;;;;;;;5058641;28;20041;-59
2023/08/30 03:06:33;;;;;;;5.97;3.90;;;;;;;;;;5057124;28;20111;-60
2023/08/30 03:09:00;;;;;;;5.25;3.90;;;;;;;;;;5056883;28;20255;-59
2023/08/30 03:11:26;;;;;;;5.18;3.30;;;;;;;;;;5048064;28;20082;-58
2023/08/30 03:13:53;;;;;;;5.45;3.75;;;;;;;;;;5045896;28;20293;-59
2023/08/30 03:16:20;;;;;;;5.07;3.60;;;;;;;;;;5047032;28;20071;-59
2023/08/30 03:18:46;;;;;;;4.85;3.17;;;;;;;;;;5042683;28;20121;-59
2023/08/30 03:21:13;;;;;;;4.30;3.53;;;;;;;;;;5049456;28;20214;-59
2023/08/30 03:23:39;;;;;;;7.05;4.80;;;;;;;;;;5057403;28;20480;-60
2023/08/30 03:26:12;;;;;;;6.57;4.22;;;;;;;;;;5051747;28;20267;-60
2023/08/30 03:28:39;;;;;;;5.55;3.78;;;;;;;;;;5049936;28;20067;-59
2023/08/30 03:31:19;;;;;;;4.72;3.75;;;;;;;;;;5051696;28;20040;-60
2023/08/30 03:33:45;;;;;;;5.50;3.55;;;;;;;;;;5054625;28;20064;-60
2023/08/30 03:36:12;;;;;;;6.70;4.35;;;;;;;;;;5035379;28;20127;-60
2023/08/30 03:38:39;;;;;;;5.18;3.83;;;;;;;;;;5061597;28;20032;-59
2023/08/30 03:41:05;;;;;;;6.75;3.58;;;;;;;;;;5045769;28;20043;-60
2023/08/30 03:43:32;;;;;;;5.40;4.07;;;;;;;;;;5060931;28;20040;-59
2023/08/30 03:45:58;;;;;;;6.75;4.20;;;;;;;;;;5054261;28;20063;-60
2023/08/30 03:48:24;;;;;;;6.72;3.95;;;;;;;;;;5056224;28;20178;-59
2023/08/30 03:50:50;;;;;;;5.63;3.80;;;;;;;;;;5054743;28;20125;-59
2023/08/30 03:53:17;;;;;;;9.48;4.10;;;;;;;;;;5045555;28;20119;-59
2023/08/30 03:55:43;;;;;;;5.68;3.75;;;;;;;;;;5049613;28;20041;-59
2023/08/30 03:58:09;;;;;;;5.93;4.15;;;;;;;;;;5051026;28;20286;-59
2023/08/30 04:00:39;;;;;;;5.82;3.92;;;;;;;;;;5054581;28;20131;-60
2023/08/30 04:03:05;;;;;;;6.95;4.57;;;;;;;;;;5054629;28;20554;-60
2023/08/30 04:05:35;;;;;;;5.50;3.90;;;;;;;;;;5054971;28;20571;-60
2023/08/30 04:08:05;;;;;;;5.30;3.80;;;;;;;;;;5071131;28;20040;-59
2023/08/30 04:10:38;;;;;;;5.43;4.30;;;;;;;;;;5048314;28;20044;-59
2023/08/30 04:13:04;;;;;;;5.95;4.00;;;;;;;;;;5064707;28;20419;-60
2023/08/30 04:15:34;;;;;;;6.90;4.82;;;;;;;;;;5059339;28;20252;-59
2023/08/30 04:18:01;;;;;;;5.95;4.30;;;;;;;;;;5057167;28;20040;-61
2023/08/30 04:20:27;;;;;;;5.22;3.65;;;;;;;;;;5051701;28;20044;-59
2023/08/30 04:22:55;;;;;;;6.00;4.53;;;;;;;;;;5066049;28;20085;-59
2023/08/30 04:25:21;;;;;;;6.90;4.47;;;;;;;;;;5060608;28;20031;-59
2023/08/30 04:27:47;;;;;;;7.00;4.38;;;;;;;;;;5058560;28;20391;-59
2023/08/30 04:30:13;;;;;;;7.38;4.50;;;;;;;;;;5058618;28;20176;-60
2023/08/30 04:32:39;;;;;;;6.68;5.00;;;;;;;;;;5041204;28;20044;-61
2023/08/30 04:35:06;;;;;;;5.95;4.45;;;;;;;;;;5054540;28;20443;-59
2023/08/30 04:37:32;;;;;;;7.07;4.32;;;;;;;;;;5054041;28;20190;-60
2023/08/30 04:39:58;;;;;;;9.38;4.97;;;;;;;;;;5049831;28;20048;-59
2023/08/30 04:42:24;;;;;;;6.70;4.65;;;;;;;;;;5051266;28;20081;-59
2023/08/30 04:44:52;;;;;;;7.68;4.70;;;;;;;;;;5058768;28;20067;-59
2023/08/30 04:47:18;;;;;;;6.57;4.55;;;;;;;;;;5054589;28;20055;-60
2023/08/30 04:49:44;;;;;;;7.32;4.35;;;;;;;;;;5047127;28;20063;-60
2023/08/30 04:52:10;;;;;;;6.43;4.18;;;;;;;;;;5059855;28;20106;-59
2023/08/30 04:54:36;;;;;;;8.15;4.50;;;;;;;;;;5040430;28;20056;-59
2023/08/30 04:57:02;;;;;;;6.82;4.40;;;;;;;;;;5045220;28;20051;-60
2023/08/30 04:59:28;;;;;;;6.38;4.43;;;;;;;;;;5041933;28;20257;-59
2023/08/30 05:01:55;;;;;;;6.10;4.47;;;;;;;;;;5050887;28;20120;-59
2023/08/30 05:04:21;;;;;;;5.45;4.18;;;;;;;;;;5051801;28;20414;-59
2023/08/30 05:06:47;;;;;;;7.63;5.03;;;;;;;;;;5042457;28;20055;-60
2023/08/30 05:09:13;;;;;;;8.20;4.05;;;;;;;;;;5047395;28;20162;-60
2023/08/30 05:11:39;;;;;;;5.85;3.90;;;;;;;;;;5050402;28;20040;-59
2023/08/30 05:14:06;;;;;;;7.18;5.03;;;;;;;;;;5047745;28;20216;-60
2023/08/30 05:16:32;;;;;;;6.50;4.85;;;;;;;;;;5049608;28;20040;-60
2023/08/30 05:18:59;;;;;;;5.50;4.20;;;;;;;;;;5066929;28;20037;-60
2023/08/30 05:21:25;;;;;;;7.63;5.07;;;;;;;;;;5049527;28;20157;-60
2023/08/30 05:23:51;;;;;;;9.32;5.18;;;;;;;;;;5049594;28;20306;-60
2023/08/30 05:26:19;;;;;;;6.22;4.63;;;;;;;;;;5044868;28;20121;-60
2023/08/30 05:28:45;;;;;;;7.10;5.00;;;;;;;;;;5045002;28;20455;-60
2023/08/30 05:31:11;;;;;;;7.32;4.63;;;;;;;;;;5046003;28;20187;-60
2023/08/30 05:33:37;;;;;;;7.68;5.25;;;;;;;;;;5048480;28;20435;-60
2023/08/30 05:36:04;;;;;;;5.88;4.60;;;;;;;;;;5039042;28;20049;-60
2023/08/30 05:38:30;;;;;;;7.20;4.88;;;;;;;;;;5044631;28;20090;-59
2023/08/30 05:40:56;;;;;;;8.18;5.53;;;;;;;;;;5038746;28;20310;-59
2023/08/30 05:43:22;;;;;;;8.52;4.47;;;;;;;;;;5044769;28;20036;-60
2023/08/30 05:45:48;;;;;;;9.55;5.60;;;;;;;;;;5045263;28;20076;-60
2023/08/30 05:48:14;;;;;;;5.70;4.45;;;;;;;;;;5048040;28;20052;-59
2023/08/30 05:50:40;;;;;;;8.98;5.93;;;;;;;;;;5048424;28;20620;-60
2023/08/30 05:53:06;;;;;;;7.00;5.20;;;;;;;;;;5047074;28;20572;-60
2023/08/30 05:55:33;;;;;;;7.30;5.30;;;;;;;;;;5043080;28;20048;-60
2023/08/30 05:57:59;;;;;;;8.20;4.90;;;;;;;;;;5041181;28;20055;-60
2023/08/30 06:00:31;;;;;;;8.80;5.18;;;;;;;;;;5043663;28;20048;-60
2023/08/30 06:02:57;;;;;;;7.65;5.80;;;;;;;;;;5039450;28;20265;-59
2023/08/30 06:05:23;;;;;;;7.55;5.50;;;;;;;;;;5046187;28;20119;-59
2023/08/30 06:07:49;;;;;;;6.80;5.60;;;;;;;;;;5045261;28;20199;-59
2023/08/30 06:10:15;;;;;;;8.20;5.82;;;;;;;;;;5045083;28;20630;-59
2023/08/30 06:12:41;;;;;;;7.57;5.60;;;;;;;;;;5043184;28;20519;-59
2023/08/30 06:15:08;;;;;;;6.80;5.47;;;;;;;;;;5051899;28;20045;-59
2023/08/30 06:17:34;;;;;;;6.47;5.32;;;;;;;;;;5049615;28;20044;-60
2023/08/30 06:20:00;;;;;;;8.02;6.07;;;;;;;;;;5059602;28;20036;-59
2023/08/30 06:22:26;;;;;;;7.90;5.75;;;;;;;;;;5055111;28;20113;-59
2023/08/30 06:24:52;;;;;;;7.25;5.35;;;;;;;;;;5050754;28;20094;-61
2023/08/30 06:27:18;;;;;;;7.85;5.43;;;;;;;;;;5034882;28;20481;-60
2023/08/30 06:29:44;;;;;;;6.70;4.68;;;;;;;;;;5042940;28;20224;-59
2023/08/30 06:32:11;;;;;;;10.23;5.30;;;;;;;;;;5050918;28;20068;-59
2023/08/30 06:34:37;;;;;;;8.85;5.53;;;;;;;;;;5044555;28;20138;-59
2023/08/30 06:37:03;;;;;;;9.68;6.13;;;;;;;;;;5044528;28;20088;-59
2023/08/30 06:39:36;;;;;;;6.88;5.70;;;;;;;;;;5051686;28;20435;-59
2023/08/30 06:42:03;;;;;;;8.30;5.57;;;;;;;;;;5043047;28;20041;-59
2023/08/30 06:44:29;;;;;;;8.65;5.55;;;;;;;;;;5054098;28;20040;-60
2023/08/30 06:46:59;;;;;;;7.18;5.15;;;;;;;;;;5045620;28;20040;-60
2023/08/30 06:49:25;;;;;;;5.80;4.53;;;;;;;;;;5046106;28;20142;-60
2023/08/30 06:51:51;;;;;;;6.53;4.68;;;;;;;;;;5050281;28;20066;-60
2023/08/30 06:54:17;;;;;;;6.53;4.93;;;;;;;;;;5046961;28;20056;-60
2023/08/30 06:57:00;;;;;;;6.88;5.15;;;;;;;;;;5054467;28;20045;-60
2023/08/30 06:59:26;;;;;;;7.72;5.63;;;;;;;;;;5051125;28;20399;-60
2023/08/30 07:01:52;;;;;;;5.85;4.47;;;;;;;;;;5048932;28;20032;-60
2023/08/30 07:04:18;;;;;;;7.85;4.63;;;;;;;;;;5048308;28;20535;-60
2023/08/30 07:06:44;;;;;;;6.95;4.93;;;;;;;;;;5041748;28;20158;-60
2023/08/30 07:09:14;;;;;;;7.60;5.13;;;;;;;;;;5040133;28;20535;-60
2023/08/30 07:11:40;;;;;;;6.43;4.32;;;;;;;;;;5046667;28;20424;-60
2023/08/30 07:14:06;;;;;;;6.93;4.22;;;;;;;;;;5052124;28;20036;-60
2023/08/30 07:16:32;;;;;;;8.45;4.93;;;;;;;;;;5050331;28;20120;-60
2023/08/30 07:18:58;;;;;;;9.43;5.75;;;;;;;;;;5052321;28;20131;-60
2023/08/30 07:21:26;;;;;;;7.53;4.90;;;;;;;;;;5054741;28;20074;-60
2023/08/30 07:23:52;;;;;;;7.72;4.72;;;;;;;;;;5055293;28;20041;-60
2023/08/30 07:26:18;;;;;;;6.53;4.82;;;;;;;;;;5051898;28;20085;-60
2023/08/30 07:28:44;;;;;;;7.70;4.30;;;;;;;;;;5052669;28;20065;-60
2023/08/30 07:31:13;;;;;;;6.88;4.43;;;;;;;;;;5053009;28;20190;-60
2023/08/30 07:33:39;;;;;;;6.30;4.80;;;;;;;;;;5054656;28;20194;-60
2023/08/30 07:36:06;;;;;;;6.50;4.38;;;;;;;;;;5054312;28;20072;-60
2023/08/30 07:38:32;;;;;;;6.13;4.20;;;;;;;;;;5052735;28;20044;-59
2023/08/30 07:40:58;;;;;;;6.80;4.10;;;;;;;;;;5049147;28;20110;-61
2023/08/30 07:43:24;;;;;;;6.82;3.80;;;;;;;;;;5053144;28;20093;-60
2023/08/30 07:45:50;;;;;;;6.70;4.53;;;;;;;;;;5047309;28;20128;-60
2023/08/30 07:48:16;;;;;;;6.90;3.90;;;;;;;;;;5053168;28;20494;-60
2023/08/30 07:50:42;;;;;;;6.47;4.30;;;;;;;;;;5049931;28;20480;-60
2023/08/30 07:53:09;;;;;;;7.78;5.60;;;;;;;;;;5049406;28;20278;-60
2023/08/30 07:55:36;;;;;;;7.00;4.88;;;;;;;;;;5044147;28;20098;-59
2023/08/30 07:58:03;;;;;;;8.50;4.80;;;;;;;;;;5045263;28;20562;-60
2023/08/30 08:00:29;;;;;;;7.03;4.38;;;;;;;;;;5049205;28;20048;-59
2023/08/30 08:02:55;;;;;;;7.38;4.55;;;;;;;;;;5049864;28;20297;-60
2023/08/30 08:05:21;;;;;;;7.22;3.88;;;;;;;;;;5047617;28;20210;-60
2023/08/30 08:07:50;;;;;;;6.15;3.72;;;;;;;;;;5050377;28;20657;-60
2023/08/30 08:10:16;;;;;;;9.38;4.45;;;;;;;;;;5049290;28;20618;-60
2023/08/30 08:12:43;;;;;;;6.75;3.42;;;;;;;;;;5042220;28;20049;-60
2023/08/30 08:15:09;;;;;;;4.90;3.38;;;;;;;;;;5041948;28;20120;-60
2023/08/30 08:17:35;;;;;;;4.65;3.08;;;;;;;;;;5058275;28;20091;-60
2023/08/30 08:20:01;;;;;;;5.25;4.00;;;;;;;;;;5048885;28;20472;-60
2023/08/30 08:22:28;;;;;;;6.30;3.20;;;;;;;;;;5051068;28;20114;-60
2023/08/30 08:24:56;;;;;;;4.93;3.75;;;;;;;;;;5049396;28;20106;-60
2023/08/30 08:27:22;;;;;;;5.45;3.35;;;;;;;;;;5049356;28;20349;-61
2023/08/30 08:29:48;;;;;;;5.45;3.50;;;19.70;95.10;;;;;;5049410;28;20527;-60
2023/08/30 08:32:14;;;;;;;5.05;2.97;;;;;;;;;;5052304;28;20252;-61
2023/08/30 08:34:40;;;;;;;4.57;3.08;;;;;;;;;;5051649;28;20522;-60
2023/08/30 08:37:07;;;;;;;5.43;3.58;;;;;;;;;;5052776;28;20041;-60
2023/08/30 08:39:34;;;;;;;4.18;2.75;;;;;;;;;;5052566;28;20052;-60
2023/08/30 08:42:00;;;;;;;6.60;3.60;;;;;;;;;;5049773;28;20094;-61
2023/08/30 08:44:27;;;;;;;6.68;3.63;;;;;;;;;;5055702;28;20279;-59
2023/08/30 08:46:53;;;;;;;4.93;3.35;;;;;;;;;;5058922;28;20540;-60
2023/08/30 08:49:20;;;;;;;5.85;3.72;;;;;;;;;;5055900;28;20048;-60
2023/08/30 08:51:46;;;;;;;5.60;3.55;;;;;;;;;;5057912;28;20059;-61
2023/08/30 08:54:13;;;;;;;5.47;3.15;;;;;;;;;;5042867;28;20120;-60
2023/08/30 08:56:40;;;;;;;4.95;3.35;;;;;;;;;;5048835;28;20134;-61
2023/08/30 08:59:08;;;;;;;5.65;3.38;;;;;;;;;;5049728;28;20129;-60
2023/08/30 09:01:35;;;;;;;4.88;3.28;;;;;;;;;;5058001;28;20228;-60
2023/08/30 09:04:06;;;;;;;6.93;3.70;;;;;;;;;;5044459;28;20558;-60
2023/08/30 09:06:32;;;;;;;5.00;3.30;;;;;;;;;;5055003;28;20609;-60
2023/08/30 09:08:58;;;;;;;5.45;3.15;;;;;;;;;;5045578;28;20041;-60
2023/08/30 09:11:24;;;;;;;6.35;3.80;;;;;;;;;;5061163;28;20042;-60
2023/08/30 09:13:50;;;;;;;6.05;2.97;;;;;;;;;;5052109;28;20041;-60
2023/08/30 09:16:16;;;;;;;4.47;2.90;;;;;;;;;;5059040;28;20173;-60
2023/08/30 09:18:43;;;;;;;5.43;3.10;;;;;;;;;;5049120;28;20040;-60
2023/08/30 09:21:09;;;;;;;6.32;4.05;;;;;;;;;;5066041;28;20408;-60
2023/08/30 09:23:35;;;;;;;4.88;2.53;;;;;;;;;;5061400;28;20075;-60
2023/08/30 09:26:04;;;;;;;6.60;3.17;;;;;;;;;;5064181;28;20514;-60
2023/08/30 09:28:34;;;;;;;6.10;2.58;;;;;;;;;;5042124;28;20451;-60
2023/08/30 09:31:00;;;;;;;4.32;2.85;;;;;;;;;;5062104;28;20043;-60
2023/08/30 09:33:33;;;;;;;5.57;3.22;;;;;;;;;;5054856;28;20045;-60
2023/08/30 09:36:00;;;;;;;4.18;2.78;;;;;;;;;;5061194;28;20292;-60
2023/08/30 09:38:26;;;;;;;4.68;3.05;;;;;;;;;;5060777;28;20257;-60
2023/08/30 09:40:53;;;;;;;3.97;2.95;;;;;;;;;;5060008;28;20044;-60
2023/08/30 09:43:21;;;;;;;4.43;2.88;;;;;;;;;;5060891;28;20490;-60
2023/08/30 09:45:48;;;;;;;3.65;2.85;;;;;;;;;;5060652;28;20720;-60
2023/08/30 09:48:14;;;;;;;4.82;2.55;;;;;;;;;;5057398;28;20047;-60
2023/08/30 09:50:42;;;;;;;3.42;2.22;;;;;;;;;;5051934;28;20044;-60
2023/08/30 09:53:12;;;;;;;5.38;2.63;;;;;;;;;;5044446;28;20180;-60
2023/08/30 09:55:38;;;;;;;4.57;2.70;;;;;;;;;;5046066;28;20048;-61
2023/08/30 09:58:05;;;;;;;4.35;3.08;;;;;;;;;;5046401;28;20044;-60
2023/08/30 10:00:32;;;;;;;6.80;2.92;;;;;;;;;;5051670;28;20435;-60
2023/08/30 10:02:59;;;;;;;4.05;2.63;;;;;;;;;;5063075;28;20171;-60
2023/08/30 10:05:26;;;;;;;5.47;2.70;;;;;;;;;;5059258;28;20558;-60
2023/08/30 10:07:55;;;;;;;3.75;2.38;;;;;;;;;;5050590;28;20394;-60
2023/08/30 10:10:22;;;;;;;5.10;3.22;;;;;;;;;;5053644;28;20045;-59
2023/08/30 10:12:48;;;;;;;5.57;2.55;;;;;;;;;;5056295;28;20044;-60
2023/08/30 10:15:14;;;;;;;4.50;3.20;;;;;;;;;;5055250;28;20140;-60
2023/08/30 10:17:45;;;;;;;8.02;3.20;;;;;;;;;;5057117;28;20044;-60
2023/08/30 10:20:14;;;;;;;4.30;2.33;;;;;;;;;;5051903;28;20051;-60
2023/08/30 10:22:41;;;;;;;7.53;3.22;;;;;;;;;;5062641;28;20129;-60
2023/08/30 10:25:10;;;;;;;4.57;2.90;;;;;;;;;;5054094;28;20040;-60
2023/08/30 10:27:37;;;;;;;4.35;2.65;;;;;;;;;;5065790;28;20129;-60
2023/08/30 10:30:05;;;;;;;5.90;2.83;;;;;;;;;;5054851;28;20053;-60
2023/08/30 10:32:32;;;;;;;4.93;2.95;;;;;;;;;;5055676;28;20125;-60
2023/08/30 10:35:01;;;;;;;5.28;2.42;;;;;;;;;;5053632;28;20040;-60
2023/08/30 10:37:27;;;;;;;5.20;3.28;;;;;;;;;;5061523;28;20436;-59
2023/08/30 10:39:59;;;;;;;3.80;2.60;;;;;;;;;;5058843;28;20280;-60
2023/08/30 10:42:25;;;;;;;5.15;3.35;;;;;;;;;;5047484;28;20205;-59
2023/08/30 10:44:52;;;;;;;3.85;2.55;;;;;;;;;;5051755;28;20033;-59
2023/08/30 10:47:26;;;;;;;6.25;2.97;;;;;;;;;;5041401;28;20041;-60
2023/08/30 10:49:57;;;;;;;4.65;2.50;;;;;;;;;;5050302;28;20216;-60
2023/08/30 10:52:24;;;;;;;3.53;2.22;;;;;;;;;;5060006;28;20047;-59
2023/08/30 10:54:50;;;;;;;6.45;2.88;;;;;;;;;;5047337;28;20094;-61
2023/08/30 10:57:20;;;;;;;5.65;3.35;;;;;;;;;;5044136;28;20076;-61
2023/08/30 11:00:09;;;;;;;5.03;2.92;;;;;;;;;;5049518;28;20169;-60
2023/08/30 11:02:36;;;;;;;5.05;2.38;;;;;;;;;;5038992;28;20210;-60
2023/08/30 11:05:03;;;;;;;7.10;2.83;;;;;;;;;;5060270;28;20165;-60
2023/08/30 11:07:30;;;;;;;4.60;2.53;;;;;;;;;;5044766;28;20291;-60
2023/08/30 11:09:56;;;;;;;4.70;2.40;;;;;;;;;;5053965;28;20457;-60
2023/08/30 11:12:30;;;;;;;3.45;2.13;;;;;;;;;;5050060;28;20098;-61
2023/08/30 11:14:56;;;;;;;3.65;2.25;;;;;;;;;;5053165;28;20044;-61
2023/08/30 11:17:23;;;;;;;4.28;2.88;;;;;;;;;;5048041;28;20339;-62
2023/08/30 11:19:58;;;;;;;4.43;2.65;;;;;;;;;;5051285;28;20043;-61
2023/08/30 11:22:24;;;;;;;6.57;2.15;;;;;;;;;;5058335;28;20112;-61
2023/08/30 11:24:50;;;;;;;4.07;2.60;;;;;;;;;;5053548;28;20120;-61
2023/08/30 11:27:19;;;;;;;4.53;2.72;;;;;;;;;;5051734;28;20036;-61
2023/08/30 11:29:45;;;;;;;3.03;2.08;;;;;;;;;;5042407;28;20397;-61
2023/08/30 11:32:12;;;;;;;4.70;2.83;;;;;;;;;;5051890;28;20484;-60
2023/08/30 11:34:38;;;;;;;3.47;2.17;;;;;;;;;;5046450;28;20102;-61
2023/08/30 11:37:04;;;;;;;4.82;3.40;;;;;;;;;;5055296;28;20054;-61
2023/08/30 11:39:30;;;;;;;2.25;1.95;;;;;;;;;;5044943;28;20059;-60
2023/08/30 11:41:57;;;;;;;5.20;2.47;;;;;;;;;;5042098;28;20499;-61
2023/08/30 11:44:29;;;;;;;4.20;2.70;;;;;;;;;;5042557;28;20042;-60
2023/08/30 11:47:02;;;;;;;3.83;2.40;;;;;;;;;;5044551;28;20424;-60
2023/08/30 11:49:28;;;;;;;;;;;;;;;;;;5045320;28;20040;-60
2023/08/30 11:51:56;;;;;;;3.28;2.17;;;;;;;;;;5042885;28;19999;-61
2023/08/30 11:54:23;;;;;;;3.33;2.15;;;;;;;;;;5042025;28;20420;-60
2023/08/30 11:56:49;;;;;;;4.97;3.17;;;;;;;;;;5059902;28;20618;-60
2023/08/30 11:59:19;;;;;;;4.20;2.58;;;;;;;;;;5035313;28;20275;-61
2023/08/30 12:01:45;;;;;;;4.07;2.80;;;;;;;;;;5047875;28;20614;-61
2023/08/30 12:04:12;;;;;;;3.42;2.28;;;;;;;;;;5041671;28;20104;-60
2023/08/30 12:06:38;;;;;;;4.43;2.72;;;;;;;;;;5046043;28;20112;-60
2023/08/30 12:09:07;;;;;;;3.60;2.42;;;;;;;;;;5029268;28;20048;-60
2023/08/30 12:11:34;;;;;;;5.40;2.67;;;;;;;;;;5039899;28;20471;-61
2023/08/30 12:14:03;;;;;;;4.22;2.47;;;;;;;;;;5038503;28;20097;-60
2023/08/30 12:16:29;;;;;;;4.47;2.55;;;;;;;;;;5046280;28;20562;-62
2023/08/30 12:18:55;;;;;;;3.35;2.45;;;;;;;;;;5051214;28;20094;-60
2023/08/30 12:21:21;;;;;;;3.95;2.83;;;;;;;;;;5053359;28;20039;-59
2023/08/30 12:23:47;;;;;;;4.45;2.88;;;;;;;;;;5061933;28;20215;-60
2023/08/30 12:26:14;;;;;;;5.97;2.92;;;;;;;;;;5042909;28;20052;-60
2023/08/30 12:28:41;;;;;;;5.13;2.45;;;;;;;;;;5043334;28;20144;-59
2023/08/30 12:31:07;;;;;;;3.83;2.35;;;;;;;;;;5072233;28;20075;-60
2023/08/30 12:33:34;;;;;;;4.32;2.92;;;;;;;;;;5045658;28;20271;-59
2023/08/30 12:36:00;;;;;;;3.40;2.47;;;;;;;;;;5045125;28;20451;-60
2023/08/30 12:38:26;;;;;;;5.47;2.40;;;;;;;;;;5050083;28;20614;-60
2023/08/30 12:40:53;;;;;;;4.38;2.67;;;;;;;;;;5044316;28;20165;-60
2023/08/30 12:43:20;;;;;;;3.33;2.80;;;;;;;;;;5056609;28;20072;-60
2023/08/30 12:45:47;;;;;;;3.97;2.33;;;;;;;;;;5037811;28;20193;-60
2023/08/30 12:48:15;;;;;;;4.30;2.80;;;;;;;;;;5035587;28;20078;-60
2023/08/30 12:50:41;;;;;;;3.53;2.30;;;;;;;;;;5039052;28;20603;-60
2023/08/30 12:53:08;;;;;;;6.05;2.70;;;;;;;;;;5045509;28;20540;-60
2023/08/30 12:55:35;;;;;;;3.85;2.25;;;;;;;;;;5040477;28;20059;-60
2023/08/30 12:58:02;;;;;;;4.40;2.90;;;;;;;;;;5033660;28;20041;-61
2023/08/30 13:00:28;;;;;;;3.47;2.20;;;;;;;;;;5037291;28;20187;-61
2023/08/30 13:02:54;;;;;;;4.90;2.40;;;;;;;;;;5041775;28;20148;-61
2023/08/30 13:05:21;;;;;;;4.22;2.70;;;;;;;;;;5047715;28;20152;-60
2023/08/30 13:07:48;;;;;;;3.65;2.22;;;;;;;;;;5036799;28;20609;-61
2023/08/30 13:10:14;;;;;;;4.63;2.67;;;;;;;;;;5050055;28;20052;-62
2023/08/30 13:12:41;;;;;;;3.60;2.30;;;;;;;;;;5043292;28;20198;-61
2023/08/30 13:15:07;;;;;;;2.80;2.03;;;;;;;;;;5048587;28;20147;-59
2023/08/30 13:17:34;;;;;;;2.35;1.70;;;;;;;;;;5046516;28;20427;-59
2023/08/30 13:20:01;;;;;;;3.50;2.30;;;;;;;;;;5052669;28;20558;-62
2023/08/30 13:22:27;;;;;;;2.95;1.85;;;;;;;;;;5043473;28;20527;-62
2023/08/30 13:24:54;;;;;;;2.90;2.03;;;;;;;;;;5042239;28;20075;-60
2023/08/30 13:27:20;;;;;;;1.65;1.40;;;;;;;;;;5044780;28;20226;-59
2023/08/30 13:29:46;;;;;;;4.45;1.80;;;;;;;;;;5050739;28;20106;-60
2023/08/30 13:32:12;;;;;;;3.50;1.80;;;;;;;;;;5050761;28;20159;-61
2023/08/30 13:34:39;;;;;;;3.03;1.77;;;;;;;;;;5040166;28;20133;-61
2023/08/30 13:37:05;;;;;;;2.30;1.60;;;;;;;;;;5050088;28;20195;-60
2023/08/30 13:39:31;;;;;;;3.45;1.90;;;;;;;;;;5050750;28;20127;-60
2023/08/30 13:41:58;;;;;;;3.85;1.65;;;;;;;;;;5045659;28;20050;-61
2023/08/30 13:44:24;;;;;;;3.88;2.00;;;;;;;;;;5043294;28;20192;-61
2023/08/30 13:46:50;;;;;;;2.75;1.50;;;;;;;;;;5037107;28;20047;-60
2023/08/30 13:49:20;;;;;;;2.53;1.52;;;;;;;;;;5052757;28;20059;-61
2023/08/30 13:51:46;;;;;;;2.78;1.67;;;;;;;;;;5043922;28;20248;-61
2023/08/30 13:54:12;;;;;;;2.60;1.35;;;;;;;;;;5037845;28;20594;-62
2023/08/30 13:56:38;;;;;;;2.55;1.92;;;;;;;;;;5043183;28;20303;-61
2023/08/30 13:59:07;;;;;;;2.80;1.70;;;;;;;;;;5043460;28;20194;-61
2023/08/30 14:01:36;;;;;;;3.08;1.52;;;18.00;97.10;;;;;;5057337;28;20653;-61
2023/08/30 14:04:04;;;;;;;2.95;1.70;;;18.90;99.10;;;;;;5044563;28;20051;-62
2023/08/30 14:06:32;;;;;;;3.00;1.70;;;;;;;;;;5060213;28;20115;-61
2023/08/30 14:08:58;;;;;;;2.47;1.90;;;;;;;;;;5047394;28;20221;-61
2023/08/30 14:11:24;;;;;;;2.60;1.60;;;;;;;;;;5044934;28;20449;-61
2023/08/30 14:13:50;;;;;;;2.67;1.75;;;18.90;99.10;;;;;;5053266;28;20549;-61
2023/08/30 14:16:16;;;;;;;2.92;1.58;;;;;;;;;;5051235;28;20108;-60
2023/08/30 14:18:43;;;;;;;3.50;2.33;;;;;;;;;;5052048;28;20579;-61
2023/08/30 14:21:09;;;;;;;2.35;1.55;;;;;;;;;;5058728;28;20426;-62
2023/08/30 14:23:36;;;;;;;2.10;1.60;;;;;;;;;;5047612;28;20510;-62
2023/08/30 14:26:08;;;;;;;1.83;1.30;;;;;;;;;;5043330;28;20033;-61
2023/08/30 14:28:34;;;;;;;;;;;;;;;;;;5042794;28;20067;-61
2023/08/30 14:31:00;;;;;;;2.45;1.60;;;;;;;;;;5036103;28;20084;-61
2023/08/30 14:33:27;;;;;;;2.40;1.48;;;;;;;;;;5048261;28;20127;-61
2023/08/30 14:35:53;;;;;;;2.60;1.90;;;;;;;;;;5049452;28;20278;-61
2023/08/30 14:38:19;;;;;;;4.35;1.83;;;;;;;;;;5051832;28;20138;-61
2023/08/30 14:40:55;;;;;;;2.17;1.45;;;;;;;;;;5044638;28;20060;-60
2023/08/30 14:43:21;;;;;;;2.63;1.80;;;;;;;;;;5054666;28;20275;-60